Bedford, Wyoming
Current Conditions -  °F | °C
As of 5:15 PM on Sunday 25 Jan 2015 (Local Time) from KAFO Reporting Station
Haze Haze  
Wind Chill: 32°   Ceiling: 3100
Heat Index: 32°   Visibility: 5mi
Dew Point: 30°   Wind: 3mph
Humidity: 93%   Direction: 30°NNE
Pressure: 30.43"   Gusts: NA
Location:  42.9°N, 110.94°W
Report Text: KAFO 260015Z AUTO 03003KT 5SM BR OVC031 00/M01 A3043 RMK AO2
Loading
Personal Weather Stations






























Interactive Weather Map New forecast layout! Learn more

10-Day Weather Forecast

Advertisements
Track Severe Weather on mobile